Time;durP1;ratioP1;P1;durP2;ratioP2;P2;SDS_P1;SDS_P2;PMS_P1;PMS_P2;Temp;Humidity;BMP_temperature;BMP_pressure;BME280_temperature;BME280_humidity;BME280_pressure;Samples;Min_cycle;Max_cycle;Signal;HPM_P1;HPM_P2
2023/03/09 00:01:36;;;;;;;19.35;13.32;;;1.40;99.90;;;;;;4981365;28;20042;-61
2023/03/09 00:04:02;;;;;;;19.20;12.85;;;1.40;1.00;;;;;;5009227;28;20424;-63
2023/03/09 00:06:29;;;;;;;19.52;12.93;;;1.40;1.00;;;;;;5009081;28;20030;-63
2023/03/09 00:08:55;;;;;;;22.38;13.43;;;1.40;1.00;;;;;;5007974;28;20046;-63
2023/03/09 00:11:21;;;;;;;20.55;13.55;;;1.40;1.00;;;;;;5009070;28;20575;-63
2023/03/09 00:13:48;;;;;;;21.05;13.43;;;1.40;1.00;;;;;;4976635;28;20050;-63
2023/03/09 00:16:17;;;;;;;21.80;13.38;;;1.30;1.00;;;;;;4977004;28;20054;-63
2023/03/09 00:18:44;;;;;;;22.67;14.13;;;1.30;1.00;;;;;;4992028;28;20046;-63
2023/03/09 00:21:14;;;;;;;21.05;13.55;;;1.30;1.00;;;;;;5009193;28;20396;-64
2023/03/09 00:23:41;;;;;;;24.90;15.23;;;1.30;1.00;;;;;;4962209;28;20044;-62
2023/03/09 00:26:07;;;;;;;24.92;15.57;;;1.30;1.00;;;;;;4978640;28;20122;-62
2023/03/09 00:28:34;;;;;;;24.70;14.75;;;1.20;1.00;;;;;;4994221;28;20057;-64
2023/03/09 00:31:05;;;;;;;25.23;14.80;;;1.20;1.00;;;;;;4991921;28;20057;-64
2023/03/09 00:33:31;;;;;;;25.80;15.10;;;1.30;1.00;;;;;;5010322;28;20698;-63
2023/03/09 00:35:57;;;;;;;25.27;15.40;;;1.20;1.00;;;;;;4977145;28;20034;-63
2023/03/09 00:38:23;;;;;;;24.73;14.27;;;1.20;1.00;;;;;;5008736;28;20499;-63
2023/03/09 00:40:49;;;;;;;24.45;13.88;;;1.20;1.00;;;;;;4960070;28;20574;-64
2023/03/09 00:43:15;;;;;;;22.83;13.50;;;1.20;1.00;;;;;;4993228;28;20046;-64
2023/03/09 00:45:40;;;;;;;27.52;16.52;;;1.20;1.00;;;;;;4959525;28;20431;-63
2023/03/09 00:48:06;;;;;;;24.38;15.15;;;1.10;1.00;;;;;;4956230;28;20041;-64
2023/03/09 00:50:32;;;;;;;24.48;15.70;;;1.20;1.00;;;;;;4992057;28;20524;-63
2023/03/09 00:52:58;;;;;;;29.35;15.65;;;1.20;1.00;;;;;;4991873;28;20168;-62
2023/03/09 00:55:23;;;;;;;24.05;15.13;;;1.20;1.00;;;;;;4977171;28;20046;-61
2023/03/09 00:57:49;;;;;;;25.02;15.55;;;1.20;1.00;;;;;;4977062;28;20047;-62
2023/03/09 01:00:15;;;;;;;27.23;15.43;;;1.10;1.00;;;;;;4976885;28;20270;-64
2023/03/09 01:02:41;;;;;;;22.80;14.13;;;1.00;1.00;;;;;;4975094;28;20034;-63
2023/03/09 01:05:09;;;;;;;24.20;15.25;;;1.10;1.00;;;;;;4976899;28;20042;-62
2023/03/09 01:07:35;;;;;;;25.17;14.82;;;1.00;1.00;;;;;;4992101;28;20404;-62
2023/03/09 01:10:02;;;;;;;26.98;14.48;;;1.00;1.00;;;;;;4977015;28;20046;-62
2023/03/09 01:12:28;;;;;;;26.08;14.30;;;1.00;1.00;;;;;;4977443;28;20046;-62
2023/03/09 01:14:55;;;;;;;24.67;14.90;;;1.00;1.00;;;;;;4975036;28;20060;-62
2023/03/09 01:17:21;;;;;;;23.85;14.73;;;1.00;1.00;;;;;;4976684;28;20125;-63
2023/03/09 01:19:46;;;;;;;26.33;17.17;;;1.00;1.00;;;;;;5009117;28;20467;-62
2023/03/09 01:22:12;;;;;;;25.67;16.27;;;0.90;1.00;;;;;;4977130;28;20153;-63
2023/03/09 01:24:38;;;;;;;24.65;16.35;;;0.90;1.00;;;;;;4978299;28;20520;-63
2023/03/09 01:27:05;;;;;;;29.33;16.45;;;0.80;1.00;;;;;;4991774;28;20061;-65
2023/03/09 01:29:31;;;;;;;24.55;14.82;;;0.80;1.00;;;;;;4997993;28;20062;-64
2023/03/09 01:31:56;;;;;;;25.50;16.08;;;0.80;1.00;;;;;;4975713;28;20524;-62
2023/03/09 01:34:22;;;;;;;26.88;15.13;;;0.80;1.00;;;;;;4975649;28;20803;-62
2023/03/09 01:36:48;;;;;;;27.90;16.73;;;0.90;1.00;;;;;;4974506;28;20725;-62
2023/03/09 01:39:14;;;;;;;29.67;16.65;;;0.90;1.00;;;;;;4974386;28;20508;-62
2023/03/09 01:41:39;;;;;;;28.65;17.00;;;0.80;1.00;;;;;;4976200;28;20070;-62
2023/03/09 01:44:05;;;;;;;28.13;15.57;;;0.90;1.00;;;;;;4974690;28;20101;-61
2023/03/09 01:46:47;;;;;;;32.05;20.08;;;0.90;1.00;;;;;;4973985;28;20037;-61
2023/03/09 01:49:44;;;;;;;32.95;19.55;;;0.80;1.00;;;;;;5009646;28;20046;-62
2023/03/09 01:52:27;;;;;;;30.58;18.23;;;0.90;1.00;;;;;;4980261;28;20085;-61
2023/03/09 01:55:12;;;;;;;32.58;19.63;;;0.90;1.00;;;;;;5010075;28;20042;-62
2023/03/09 01:58:06;;;;;;;33.80;19.88;;;0.80;1.00;;;;;;4977524;28;20035;-62
2023/03/09 02:00:35;;;;;;;36.95;19.75;;;0.80;1.00;;;;;;4970860;28;20085;-62
2023/03/09 02:03:07;;;;;;;30.58;18.48;;;0.80;1.00;;;;;;4975702;28;20277;-63
2023/03/09 02:05:45;;;;;;;36.97;21.17;;;0.60;1.00;;;;;;4974417;28;20144;-62
2023/03/09 02:08:12;;;;;;;33.83;20.17;;;0.70;1.00;;;;;;4990605;28;20580;-62
2023/03/09 02:10:45;;;;;;;32.63;20.67;;;0.70;1.00;;;;;;4990957;28;20049;-63
2023/03/09 02:13:15;;;;;;;32.90;19.40;;;0.60;1.00;;;;;;4974184;28;20041;-62
2023/03/09 02:15:41;;;;;;;28.95;19.08;;;0.70;1.00;;;;;;5007034;28;20128;-63
2023/03/09 02:18:08;;;;;;;31.02;19.95;;;0.70;1.00;;;;;;4990274;28;20221;-62
2023/03/09 02:20:52;;;;;;;28.98;17.20;;;0.80;1.00;;;;;;5009541;28;20046;-62
2023/03/09 02:23:43;;;;;;;28.38;17.40;;;0.80;1.00;;;;;;4974263;28;20112;-62
2023/03/09 02:26:12;;;;;;;21.88;13.00;;;0.90;1.00;;;;;;4990492;28;20582;-63
2023/03/09 02:28:38;;;;;;;24.67;14.45;;;0.80;1.00;;;;;;4989355;28;20375;-63
2023/03/09 02:31:05;;;;;;;31.58;18.70;;;0.90;1.00;;;;;;4973389;28;20325;-65
2023/03/09 02:33:30;;;;;;;31.52;19.00;;;0.80;1.00;;;;;;5006414;28;20451;-64
2023/03/09 02:35:58;;;;;;;28.38;18.35;;;0.80;1.00;;;;;;4975228;28;20038;-63
2023/03/09 02:38:24;;;;;;;30.48;17.75;;;0.90;1.00;;;;;;4974299;28;20148;-62
2023/03/09 02:40:52;;;;;;;32.85;20.38;;;0.90;1.00;;;;;;4970302;28;20034;-63
2023/03/09 02:43:23;;;;;;;30.00;18.02;;;0.90;1.00;;;;;;4973494;28;20050;-63
2023/03/09 02:45:49;;;;;;;31.08;18.48;;;0.90;1.00;;;;;;4974227;28;20042;-63
2023/03/09 02:48:15;;;;;;;32.78;20.98;;;0.70;1.00;;;;;;4975275;28;20127;-63
2023/03/09 02:50:41;;;;;;;34.20;21.02;;;0.70;1.00;;;;;;4974595;28;20365;-63
2023/03/09 02:53:07;;;;;;;28.92;18.88;;;0.80;1.00;;;;;;4974009;28;20057;-63
2023/03/09 02:55:33;;;;;;;30.40;19.90;;;0.80;1.00;;;;;;4941722;28;20042;-64
2023/03/09 02:57:58;;;;;;;28.20;19.20;;;0.90;1.00;;;;;;4973753;28;20060;-64
2023/03/09 03:00:25;;;;;;;29.77;18.27;;;0.80;1.00;;;;;;4991074;28;20254;-63
2023/03/09 03:02:51;;;;;;;33.70;20.25;;;0.90;1.00;;;;;;4974727;28;20528;-64
2023/03/09 03:05:17;;;;;;;29.58;18.30;;;0.80;1.00;;;;;;5007832;28;20133;-65
2023/03/09 03:07:43;;;;;;;29.27;18.35;;;0.90;1.00;;;;;;4988863;28;20207;-63
2023/03/09 03:10:09;;;;;;;32.60;18.50;;;0.80;1.00;;;;;;4976320;28;20137;-64
2023/03/09 03:12:35;;;;;;;37.67;20.98;;;0.80;1.00;;;;;;4993608;28;20042;-62
2023/03/09 03:15:02;;;;;;;35.90;21.17;;;0.80;1.00;;;;;;4989880;28;20045;-62
2023/03/09 03:17:27;;;;;;;36.92;21.05;;;0.80;1.00;;;;;;4989145;28;20149;-62
2023/03/09 03:19:54;;;;;;;31.92;18.17;;;1.00;1.00;;;;;;4974622;28;20123;-64
2023/03/09 03:22:20;;;;;;;36.05;22.42;;;1.00;1.00;;;;;;4996102;28;20042;-62
2023/03/09 03:24:46;;;;;;;36.50;22.08;;;0.90;1.00;;;;;;4975251;28;20057;-62
2023/03/09 03:27:11;;;;;;;34.72;21.10;;;0.90;1.00;;;;;;4993982;28;20077;-62
2023/03/09 03:29:37;;;;;;;29.08;18.30;;;0.80;1.00;;;;;;4977183;28;20054;-63
2023/03/09 03:32:03;;;;;;;33.88;20.35;;;1.00;1.00;;;;;;4978296;28;20452;-62
2023/03/09 03:34:29;;;;;;;30.55;18.17;;;1.10;1.00;;;;;;4978501;28;20352;-62
2023/03/09 03:36:55;;;;;;;25.55;15.85;;;1.10;1.00;;;;;;4993700;28;20041;-62
2023/03/09 03:39:21;;;;;;;22.35;13.70;;;1.00;1.00;;;;;;4977612;28;20058;-62
2023/03/09 03:41:46;;;;;;;26.30;15.75;;;1.00;1.00;;;;;;4976250;28;20030;-62
2023/03/09 03:44:13;;;;;;;25.02;16.63;;;1.20;1.00;;;;;;4978707;28;20735;-62
2023/03/09 03:46:38;;;;;;;24.80;15.35;;;1.10;1.00;;;;;;4976376;28;20042;-62
2023/03/09 03:49:04;;;;;;;24.55;14.65;;;1.10;1.00;;;;;;4976080;28;20521;-62
2023/03/09 03:51:30;;;;;;;21.02;13.45;;;1.00;1.00;;;;;;5008408;28;20245;-63
2023/03/09 03:53:56;;;;;;;23.58;14.43;;;1.20;1.00;;;;;;4993172;28;20046;-62
2023/03/09 03:56:22;;;;;;;25.25;15.38;;;1.10;1.00;;;;;;4978187;28;20046;-62
2023/03/09 03:58:47;;;;;;;27.15;17.77;;;1.20;1.00;;;;;;4997912;28;20409;-62
2023/03/09 04:01:13;;;;;;;20.48;12.13;;;1.20;1.00;;;;;;4977616;28;20515;-62
2023/03/09 04:03:39;;;;;;;25.17;14.80;;;1.10;1.00;;;;;;4977478;28;20105;-62
2023/03/09 04:06:05;;;;;;;27.05;16.63;;;1.20;1.00;;;;;;4977453;28;20042;-61
2023/03/09 04:08:31;;;;;;;25.20;14.65;;;1.10;1.00;;;;;;4976849;28;20039;-62
2023/03/09 04:10:57;;;;;;;25.20;16.08;;;1.10;1.00;;;;;;4978352;28;20046;-61
2023/03/09 04:13:23;;;;;;;22.50;13.85;;;1.00;1.00;;;;;;4978667;28;20309;-62
2023/03/09 04:15:49;;;;;;;28.25;16.08;;;1.00;1.00;;;;;;4978544;28;20345;-62
2023/03/09 04:18:15;;;;;;;25.50;16.73;;;0.90;1.00;;;;;;4995028;28;20050;-61
2023/03/09 04:20:43;;;;;;;27.55;16.58;;;1.00;1.00;;;;;;4975666;28;20129;-63
2023/03/09 04:23:10;;;;;;;25.80;16.02;;;0.90;1.00;;;;;;4976792;28;20377;-62
2023/03/09 04:25:36;;;;;;;26.45;17.25;;;0.90;1.00;;;;;;4993048;28;20583;-62
2023/03/09 04:28:02;;;;;;;26.00;15.95;;;0.90;1.00;;;;;;4991547;28;20108;-62
2023/03/09 04:30:28;;;;;;;24.15;15.05;;;0.90;1.00;;;;;;4976617;28;20108;-62
2023/03/09 04:32:54;;;;;;;24.92;14.95;;;0.90;1.00;;;;;;4960468;28;20100;-62
2023/03/09 04:35:20;;;;;;;25.35;15.95;;;1.00;1.00;;;;;;5008428;28;20589;-62
2023/03/09 04:37:45;;;;;;;22.88;15.18;;;0.70;1.00;;;;;;4979977;28;20054;-63
2023/03/09 04:40:13;;;;;;;25.85;16.67;;;0.90;1.00;;;;;;4992736;28;20118;-62
2023/03/09 04:42:38;;;;;;;21.58;13.00;;;0.80;1.00;;;;;;5009456;28;20047;-62
2023/03/09 04:45:05;;;;;;;26.88;15.50;;;0.60;1.00;;;;;;4977359;28;20030;-63
2023/03/09 04:47:31;;;;;;;23.48;14.18;;;0.70;1.00;;;;;;4976234;28;20049;-62
2023/03/09 04:49:57;;;;;;;24.30;16.15;;;0.60;1.00;;;;;;5008730;28;20658;-62
2023/03/09 04:52:23;;;;;;;23.38;14.38;;;0.70;1.00;;;;;;4976913;28;20247;-62
2023/03/09 04:54:48;;;;;;;22.65;15.07;;;0.70;1.00;;;;;;4991784;28;20041;-62
2023/03/09 04:57:15;;;;;;;24.83;15.93;;;0.60;1.00;;;;;;4994423;28;20115;-62
2023/03/09 04:59:41;;;;;;;24.55;14.82;;;0.70;1.00;;;;;;4975866;28;20513;-62
2023/03/09 05:02:06;;;;;;;25.60;15.77;;;0.70;1.00;;;;;;4976623;28;20404;-63
2023/03/09 05:04:33;;;;;;;28.60;17.58;;;0.60;1.00;;;;;;4976410;28;20214;-61
2023/03/09 05:06:59;;;;;;;29.27;17.52;;;0.80;1.00;;;;;;5006700;28;20042;-62
2023/03/09 05:09:25;;;;;;;26.63;14.70;;;0.70;1.00;;;;;;4993870;28;20538;-62
2023/03/09 05:11:51;;;;;;;23.88;15.63;;;0.70;1.00;;;;;;4976386;28;20069;-62
2023/03/09 05:14:21;;;;;;;27.02;15.95;;;0.70;1.00;;;;;;4999809;28;20493;-62
2023/03/09 05:16:51;;;;;;;26.48;16.42;;;0.70;1.00;;;;;;4977701;28;20046;-63
2023/03/09 05:19:18;;;;;;;25.52;15.38;;;0.70;1.00;;;;;;4979488;28;20073;-62
2023/03/09 05:21:43;;;;;;;23.08;15.80;;;0.80;1.00;;;;;;5008008;28;20046;-62
2023/03/09 05:24:09;;;;;;;25.95;16.67;;;0.80;1.00;;;;;;4977357;28;20041;-61
2023/03/09 05:26:35;;;;;;;27.38;18.02;;;0.80;1.00;;;;;;4975795;28;20128;-61
2023/03/09 05:29:00;;;;;;;28.83;17.83;;;0.80;1.00;;;;;;4975135;28;20057;-62
2023/03/09 05:31:26;;;;;;;26.38;16.70;;;0.60;1.00;;;;;;4975292;28;20043;-62
2023/03/09 05:33:53;;;;;;;25.35;17.30;;;0.70;1.00;;;;;;4976740;28;20795;-62
2023/03/09 05:36:21;;;;;;;26.45;17.98;;;0.60;1.00;;;;;;4975127;28;20050;-64
2023/03/09 05:38:49;;;;;;;31.23;18.67;;;0.60;1.00;;;;;;4976843;28;20262;-63
2023/03/09 05:41:15;;;;;;;27.73;17.60;;;0.70;1.00;;;;;;4977207;28;20042;-63
2023/03/09 05:43:43;;;;;;;27.88;18.02;;;0.60;1.00;;;;;;4989814;28;20704;-62
2023/03/09 05:46:14;;;;;;;26.08;16.48;;;0.60;1.00;;;;;;4976890;28;20484;-62
2023/03/09 05:48:41;;;;;;;27.52;18.75;;;0.60;1.00;;;;;;4959636;28;20175;-62
2023/03/09 05:51:10;;;;;;;30.40;19.08;;;0.70;1.00;;;;;;4976469;28;20397;-62
2023/03/09 05:53:36;;;;;;;31.08;18.73;;;0.60;1.00;;;;;;4990642;28;20046;-62
2023/03/09 05:56:03;;;;;;;29.58;19.60;;;0.60;1.00;;;;;;4979092;28;20448;-62
2023/03/09 05:58:29;;;;;;;27.55;18.60;;;0.50;1.00;;;;;;4991094;28;20520;-62
2023/03/09 06:00:56;;;;;;;30.73;20.30;;;0.70;1.00;;;;;;4975131;28;20069;-62
2023/03/09 06:03:23;;;;;;;29.67;19.08;;;0.70;1.00;;;;;;4991411;28;20042;-63
2023/03/09 06:06:04;;;;;;;25.95;18.35;;;0.60;1.00;;;;;;4976932;28;20235;-62
2023/03/09 06:08:32;;;;;;;27.88;17.63;;;0.60;1.00;;;;;;4973943;28;20124;-63
2023/03/09 06:10:58;;;;;;;25.30;17.50;;;0.50;2.00;;;;;;4974652;28;20045;-63
2023/03/09 06:13:24;;;;;;;24.33;15.98;;;0.60;1.00;;;;;;4990129;28;20349;-62
2023/03/09 06:15:50;;;;;;;27.35;18.25;;;0.70;1.00;;;;;;5007711;28;20746;-62
2023/03/09 06:18:17;;;;;;;26.92;17.92;;;0.70;3.10;;;;;;4974315;28;20061;-63
2023/03/09 06:20:43;;;;;;;27.02;19.23;;;0.70;4.50;;;;;;4977103;28;20042;-61
2023/03/09 06:23:09;;;;;;;28.90;20.08;;;0.70;11.50;;;;;;4959309;28;20056;-62
2023/03/09 06:25:36;;;;;;;26.75;17.83;;;0.70;13.50;;;;;;4975505;28;20217;-61
2023/03/09 06:28:02;;;;;;;26.83;18.80;;;0.80;11.10;;;;;;4991334;28;20365;-62
2023/03/09 06:30:28;;;;;;;29.42;19.63;;;0.60;15.40;;;;;;4975288;28;20398;-62
2023/03/09 06:32:56;;;;;;;27.33;18.23;;;0.70;15.40;;;;;;4976773;28;20042;-62
2023/03/09 06:35:25;;;;;;;29.60;18.83;;;0.70;17.30;;;;;;4975024;28;20073;-63
2023/03/09 06:37:51;;;;;;;29.23;19.13;;;0.60;21.20;;;;;;4990116;28;20381;-62
2023/03/09 06:40:17;;;;;;;28.50;19.30;;;0.80;21.50;;;;;;4959892;28;20042;-62
2023/03/09 06:42:43;;;;;;;29.83;17.45;;;0.80;22.50;;;;;;4975100;28;20117;-62
2023/03/09 06:45:09;;;;;;;30.17;18.75;;;0.60;23.90;;;;;;5010158;28;20318;-62
2023/03/09 06:47:35;;;;;;;30.00;19.52;;;0.60;22.70;;;;;;5007714;28;20042;-61
2023/03/09 06:50:01;;;;;;;26.00;17.45;;;0.60;20.80;;;;;;4957737;28;20524;-62
2023/03/09 06:52:27;;;;;;;30.02;19.20;;;0.70;16.60;;;;;;4990360;28;20547;-63
2023/03/09 06:54:53;;;;;;;30.08;20.02;;;0.80;18.10;;;;;;4972411;28;20108;-62
2023/03/09 06:57:19;;;;;;;29.25;19.50;;;0.70;22.30;;;;;;4989360;28;20488;-63
2023/03/09 06:59:44;;;;;;;28.65;19.30;;;0.70;27.40;;;;;;5007110;28;20050;-62
2023/03/09 07:02:14;;;;;;;28.20;20.63;;;0.90;32.50;;;;;;4980933;28;20216;-61
2023/03/09 07:04:40;;;;;;;32.05;19.52;;;1.00;37.20;;;;;;4981133;28;20034;-61
2023/03/09 07:07:07;;;;;;;29.15;19.90;;;0.90;36.70;;;;;;4993326;28;20073;-62
2023/03/09 07:09:33;;;;;;;26.27;17.52;;;1.00;51.10;;;;;;4977884;28;20046;-62
2023/03/09 07:11:59;;;;;;;30.98;20.42;;;1.00;57.00;;;;;;4995915;28;20081;-63
2023/03/09 07:14:26;;;;;;;31.40;20.20;;;0.90;49.10;;;;;;4978830;28;20291;-62
2023/03/09 07:16:56;;;;;;;28.02;18.65;;;0.90;47.20;;;;;;4997320;28;20053;-62
2023/03/09 07:19:22;;;;;;;32.33;21.05;;;1.00;47.30;;;;;;5012165;28;20517;-62
2023/03/09 07:21:49;;;;;;;25.13;18.42;;;0.90;60.10;;;;;;5013030;28;20138;-62
2023/03/09 07:24:15;;;;;;;28.33;20.02;;;1.00;70.70;;;;;;4999249;28;20069;-62
2023/03/09 07:26:41;;;;;;;27.33;19.77;;;0.90;74.10;;;;;;4994699;28;20345;-63
2023/03/09 07:29:07;;;;;;;25.58;16.95;;;1.10;80.30;;;;;;4981856;28;20069;-62
2023/03/09 07:31:33;;;;;;;29.30;20.27;;;1.10;56.20;;;;;;4978269;28;20046;-62
2023/03/09 07:33:59;;;;;;;28.75;19.23;;;1.10;81.60;;;;;;5000039;28;20389;-63
2023/03/09 07:36:25;;;;;;;27.63;20.40;;;1.20;88.10;;;;;;5009170;28;20038;-64
2023/03/09 07:38:51;;;;;;;29.92;20.40;;;1.30;95.70;;;;;;4998191;28;20482;-63
2023/03/09 07:41:18;;;;;;;28.00;19.52;;;1.30;91.60;;;;;;4997598;28;21174;-63
2023/03/09 07:43:44;;;;;;;24.30;15.85;;;1.40;68.60;;;;;;5010714;28;20034;-63
2023/03/09 07:46:12;;;;;;;28.17;18.77;;;1.50;39.70;;;;;;4981463;28;20054;-63
2023/03/09 07:48:38;;;;;;;29.00;19.63;;;1.60;10.90;;;;;;4982044;28;20238;-63
2023/03/09 07:51:05;;;;;;;27.77;19.85;;;1.70;1.00;;;;;;5009755;28;20345;-63
2023/03/09 07:53:32;;;;;;;25.50;18.25;;;1.80;1.00;;;;;;4994702;28;20050;-64
2023/03/09 07:56:02;;;;;;;25.55;19.75;;;1.70;1.00;;;;;;4964504;28;20639;-63
2023/03/09 07:58:28;;;;;;;25.65;17.95;;;1.90;21.80;;;;;;4981278;28;20540;-63
2023/03/09 08:00:53;;;;;;;30.02;19.52;;;2.10;86.60;;;;;;4996441;28;20336;-63
2023/03/09 08:03:19;;;;;;;22.17;15.23;;;2.40;98.80;;;;;;4958983;28;20042;-63
2023/03/09 08:05:45;;;;;;;24.98;19.00;;;2.70;77.60;;;;;;4995318;28;20622;-63
2023/03/09 08:08:11;;;;;;;22.83;16.88;;;2.90;77.20;;;;;;4980051;28;20493;-63
2023/03/09 08:10:37;;;;;;;24.00;18.13;;;3.00;60.20;;;;;;4980710;28;20347;-63
2023/03/09 08:13:03;;;;;;;22.42;17.05;;;3.20;92.60;;;;;;4961625;28;20543;-64
2023/03/09 08:15:29;;;;;;;23.42;17.85;;;3.40;52.50;;;;;;4978741;28;20510;-64
2023/03/09 08:17:55;;;;;;;23.80;17.98;;;3.60;55.00;;;;;;5010185;28;20115;-64
2023/03/09 08:20:21;;;;;;;21.95;16.92;;;3.80;88.50;;;;;;4980946;28;20042;-62
2023/03/09 08:22:46;;;;;;;22.27;15.65;;;3.90;31.10;;;;;;4981985;28;20034;-62
2023/03/09 08:25:12;;;;;;;19.67;16.67;;;3.90;34.20;;;;;;5011806;28;20531;-61
2023/03/09 08:27:46;;;;;;;21.13;16.92;;;3.80;1.00;;;;;;4977936;28;20053;-61
2023/03/09 08:30:13;;;;;;;19.00;14.85;;;3.50;1.00;;;;;;4983225;28;20069;-62
2023/03/09 08:32:39;;;;;;;18.42;15.80;;;3.40;1.00;;;;;;4982484;28;20156;-61
2023/03/09 08:35:05;;;;;;;19.45;16.25;;;3.30;25.20;;;;;;4979343;28;20046;-63
2023/03/09 08:37:31;;;;;;;17.85;14.32;;;3.40;61.70;;;;;;4981622;28;20034;-62
2023/03/09 08:39:56;;;;;;;19.42;15.77;;;3.50;99.90;;;;;;4965366;28;20042;-63
2023/03/09 08:42:22;;;;;;;16.23;13.63;;;3.80;91.10;;;;;;4979086;28;20401;-64
2023/03/09 08:44:48;;;;;;;18.23;14.57;;;4.10;92.30;;;;;;4980016;28;20053;-63
2023/03/09 08:47:14;;;;;;;17.83;14.60;;;4.60;60.80;;;;;;4978651;28;20274;-64
2023/03/09 08:49:41;;;;;;;15.10;13.50;;;4.90;15.20;;;;;;4978692;28;20571;-63
2023/03/09 08:52:07;;;;;;;16.98;14.25;;;5.30;1.00;;;;;;4995315;28;20046;-64
2023/03/09 08:54:33;;;;;;;16.48;12.50;;;5.60;1.00;;;;;;4959655;28;20789;-63
2023/03/09 08:56:59;;;;;;;15.65;13.10;;;5.60;1.00;;;;;;4994404;28;20773;-64
2023/03/09 08:59:25;;;;;;;14.70;13.02;;;5.70;1.00;;;;;;4991251;28;20571;-62
2023/03/09 09:01:50;;;;;;;15.85;13.85;;;5.70;1.00;;;;;;4975766;28;20046;-62
2023/03/09 09:04:16;;;;;;;15.70;12.95;;;5.80;1.00;;;;;;4977796;28;20065;-64
2023/03/09 09:06:42;;;;;;;15.27;13.13;;;5.90;1.00;;;;;;4976812;28;20039;-63
2023/03/09 09:09:09;;;;;;;14.90;13.30;;;6.00;99.90;;;;;;4995706;28;20503;-62
2023/03/09 09:11:38;;;;;;;14.18;12.32;;;6.40;99.90;;;;;;5012731;28;20136;-61
2023/03/09 09:14:04;;;;;;;14.95;11.73;;;6.80;99.90;;;;;;4974024;28;20060;-64
2023/03/09 09:16:30;;;;;;;11.98;10.40;;;6.90;99.90;;;;;;4993126;28;20041;-63
2023/03/09 09:18:56;;;;;;;12.80;11.02;;;6.90;99.90;;;;;;4977174;28;20065;-62
2023/03/09 09:21:23;;;;;;;11.20;9.65;;;6.80;99.90;;;;;;5010802;28;20112;-62
2023/03/09 09:23:49;;;;;;;13.90;10.68;;;6.70;99.90;;;;;;4994983;28;20348;-63
2023/03/09 09:26:16;;;;;;;12.52;10.60;;;6.40;99.90;;;;;;4994400;28;20042;-62
2023/03/09 09:28:42;;;;;;;11.93;10.07;;;6.40;99.90;;;;;;4976149;28;20421;-62
2023/03/09 09:31:12;;;;;;;9.90;8.18;;;6.40;99.90;;;;;;4993590;28;20041;-63
2023/03/09 09:33:38;;;;;;;8.82;7.63;;;6.20;99.90;;;;;;4958464;28;20053;-62
2023/03/09 09:36:09;;;;;;;11.50;8.75;;;6.10;99.90;;;;;;4975247;28;20077;-63
2023/03/09 09:38:35;;;;;;;10.85;9.00;;;6.20;99.90;;;;;;4991198;28;20603;-62
2023/03/09 09:41:35;;;;;;;8.85;7.88;;;6.60;99.90;;;;;;5008089;28;20058;-62
2023/03/09 09:44:07;;;;;;;8.85;7.43;;;6.80;99.90;;;;;;4976854;28;20675;-63
2023/03/09 09:46:35;;;;;;;9.27;7.07;;;6.70;99.90;;;;;;5026718;28;20041;-62
2023/03/09 09:49:03;;;;;;;7.05;6.25;;;6.70;99.90;;;;;;4977357;28;20050;-63
2023/03/09 09:51:47;;;;;;;8.93;8.02;;;6.90;99.90;;;;;;4989929;28;20431;-63
2023/03/09 09:54:25;;;;;;;8.27;6.43;;;6.80;99.90;;;;;;4991678;28;20033;-63
2023/03/09 09:56:56;;;;;;;7.15;6.45;;;7.10;99.90;;;;;;4975751;28;20579;-64
2023/03/09 09:59:35;;;;;;;8.18;7.35;;;7.30;99.90;;;;;;5005439;28;20528;-63
2023/03/09 10:02:09;;;;;;;7.68;6.75;;;7.50;99.90;;;;;;4978453;28;20034;-63
2023/03/09 10:04:48;;;;;;;7.88;6.60;;;7.70;99.90;;;;;;4993670;28;20416;-62
2023/03/09 10:07:20;;;;;;;8.80;6.80;;;7.70;99.90;;;;;;4974843;28;20248;-64
2023/03/09 10:09:52;;;;;;;8.70;7.80;;;7.60;99.90;;;;;;4993508;28;20183;-63
2023/03/09 10:12:18;;;;;;;8.32;7.53;;;7.70;99.90;;;;;;4975655;28;20198;-64
2023/03/09 10:14:55;;;;;;;9.00;8.10;;;8.00;99.90;;;;;;4976227;28;20127;-62
2023/03/09 10:17:38;;;;;;;8.63;7.80;;;8.10;99.90;;;;;;4973424;28;20058;-63
2023/03/09 10:20:29;;;;;;;9.48;7.97;;;7.90;99.90;;;;;;4977596;28;20506;-63
2023/03/09 10:22:56;;;;;;;8.98;7.65;;;7.20;99.90;;;;;;4991684;28;20109;-63
2023/03/09 10:25:24;;;;;;;10.10;8.30;;;6.90;99.90;;;;;;5008021;28;20657;-63
2023/03/09 10:28:10;;;;;;;8.38;7.53;;;6.90;99.90;;;;;;4974903;28;20073;-64
2023/03/09 10:30:38;;;;;;;7.55;6.80;;;7.40;99.90;;;;;;4971605;28;20398;-63
2023/03/09 10:33:16;;;;;;;7.80;7.00;;;8.20;99.90;;;;;;4970759;28;20055;-64
2023/03/09 10:35:45;;;;;;;8.55;7.68;;;8.90;99.90;;;;;;4959777;28;20125;-64
2023/03/09 10:38:19;;;;;;;8.13;6.45;;;9.20;99.90;;;;;;4939966;28;20520;-62
2023/03/09 10:40:48;;;;;;;7.53;6.60;;;9.10;99.90;;;;;;4963547;28;20045;-62
2023/03/09 10:43:35;;;;;;;6.82;6.07;;;8.80;99.90;;;;;;4956249;28;20181;-63
2023/03/09 10:46:09;;;;;;;7.30;6.00;;;8.90;99.90;;;;;;4942148;28;20280;-63
2023/03/09 10:48:35;;;;;;;7.95;6.90;;;9.10;99.90;;;;;;4970722;28;20485;-63
2023/03/09 10:51:02;;;;;;;7.65;6.72;;;8.50;99.90;;;;;;4970937;28;20130;-64
2023/03/09 10:53:44;;;;;;;8.48;6.18;;;7.70;99.90;;;;;;4955487;28;20042;-64
2023/03/09 10:56:27;;;;;;;8.35;7.55;;;7.00;99.90;;;;;;4956536;28;20050;-64
2023/03/09 10:59:06;;;;;;;;;;;6.60;99.90;;;;;;4939080;28;20047;-64
2023/03/09 11:01:53;;;;;;;7.80;7.00;;;6.80;99.90;;;;;;4970631;28;19922;-64
2023/03/09 11:04:22;;;;;;;7.82;6.63;;;7.10;99.90;;;;;;4938237;28;20039;-64
2023/03/09 11:06:58;;;;;;;8.70;7.25;;;7.10;99.90;;;;;;4954439;28;20194;-64
2023/03/09 11:09:41;;;;;;;7.82;6.43;;;7.10;99.90;;;;;;4956410;28;20042;-65
2023/03/09 11:12:24;;;;;;;7.85;6.53;;;7.10;99.90;;;;;;4971399;28;20125;-65
2023/03/09 11:14:53;;;;;;;7.25;6.57;;;6.60;99.90;;;;;;4956817;28;20050;-64
2023/03/09 11:17:47;;;;;;;6.97;6.20;;;6.00;99.90;;;;;;4954366;28;20126;-65
2023/03/09 11:20:12;;;;;;;8.32;6.60;;;5.60;99.90;;;;;;4958710;28;20460;-65
2023/03/09 11:22:49;;;;;;;8.95;7.25;;;5.50;99.90;;;;;;4954970;28;20047;-64
2023/03/09 11:25:53;;;;;;;9.73;7.65;;;5.40;99.90;;;;;;4953844;28;20336;-65
2023/03/09 11:28:32;;;;;;;7.53;6.13;;;5.20;99.90;;;;;;4972829;28;20319;-65
2023/03/09 11:30:57;;;;;;;8.55;6.18;;;5.20;99.90;;;;;;5006629;28;20050;-64
2023/03/09 11:33:25;;;;;;;6.78;5.90;;;5.30;99.90;;;;;;5006225;28;20041;-64
2023/03/09 11:35:53;;;;;;;7.05;6.20;;;5.60;99.90;;;;;;5005852;28;20453;-64
2023/03/09 11:38:20;;;;;;;6.07;5.53;;;5.70;99.90;;;;;;4989091;28;20518;-64
2023/03/09 11:40:50;;;;;;;6.07;5.47;;;5.60;99.90;;;;;;4974045;28;20591;-64
2023/03/09 11:43:30;;;;;;;6.95;6.10;;;5.40;99.90;;;;;;4975303;28;20070;-65
2023/03/09 11:46:02;;;;;;;8.02;7.18;;;5.30;99.90;;;;;;5008988;28;20269;-64
2023/03/09 11:48:36;;;;;;;7.95;5.32;;;5.30;99.90;;;;;;5009192;28;20041;-64
2023/03/09 11:51:21;;;;;;;6.57;5.97;;;5.20;99.90;;;;;;5008801;28;20082;-65
2023/03/09 11:54:24;;;;;;;8.02;6.03;;;5.10;99.90;;;;;;4994864;28;20046;-64
2023/03/09 11:56:52;;;;;;;7.97;6.00;;;5.10;99.90;;;;;;4968579;28;20252;-65
2023/03/09 11:59:22;;;;;;;7.35;6.40;;;5.20;99.90;;;;;;4977039;28;20046;-64
2023/03/09 12:02:13;;;;;;;6.50;5.88;;;5.30;99.90;;;;;;4994194;28;20891;-65
2023/03/09 12:04:39;;;;;;;6.35;5.75;;;5.40;99.90;;;;;;4992653;28;20107;-64
2023/03/09 12:07:24;;;;;;;6.07;5.53;;;5.30;99.90;;;;;;5010896;28;20079;-64
2023/03/09 12:10:09;;;;;;;5.93;5.30;;;5.10;99.90;;;;;;5008654;28;20045;-64
2023/03/09 12:13:26;;;;;;;5.88;5.28;;;5.00;99.90;;;;;;5000394;28;20093;-65
2023/03/09 12:16:17;;;;;;;7.65;6.57;;;5.00;99.90;;;;;;4982968;28;20319;-65
2023/03/09 12:19:12;;;;;;;7.43;6.63;;;4.90;99.90;;;;;;4977820;28;20112;-65
2023/03/09 12:21:41;;;;;;;7.85;6.57;;;5.00;99.90;;;;;;5006118;28;20046;-65
2023/03/09 12:24:27;;;;;;;7.25;6.55;;;5.00;99.90;;;;;;4976350;28;20236;-64
2023/03/09 12:26:59;;;;;;;7.43;6.68;;;5.10;99.90;;;;;;4974863;28;20034;-65
2023/03/09 12:29:39;;;;;;;6.93;6.22;;;5.10;99.90;;;;;;4989409;28;20409;-64
2023/03/09 12:32:19;;;;;;;7.13;6.28;;;5.10;99.90;;;;;;4979272;28;20054;-65
2023/03/09 12:34:47;;;;;;;6.85;6.18;;;5.10;99.90;;;;;;4976878;28;20069;-65
2023/03/09 12:37:36;;;;;;;6.03;4.68;;;5.00;99.90;;;;;;4975015;28;20092;-65
2023/03/09 12:40:20;;;;;;;6.88;6.18;;;5.10;99.90;;;;;;4975462;28;20136;-64
2023/03/09 12:42:51;;;;;;;7.10;6.40;;;5.10;99.90;;;;;;5010299;28;20053;-64
2023/03/09 12:45:16;;;;;;;6.90;5.57;;;5.10;99.90;;;;;;4992606;28;20039;-63
2023/03/09 12:47:45;;;;;;;6.75;6.05;;;5.30;99.90;;;;;;4991935;28;20701;-64
2023/03/09 12:50:20;;;;;;;7.18;6.47;;;5.30;99.90;;;;;;4989413;28;20091;-66
2023/03/09 12:52:57;;;;;;;7.00;6.03;;;5.30;99.90;;;;;;4991237;28;20082;-64
2023/03/09 12:55:41;;;;;;;7.05;6.35;;;5.30;99.90;;;;;;4975705;28;20050;-64
2023/03/09 12:58:21;;;;;;;10.55;6.55;;;5.30;99.90;;;;;;4977036;28;20046;-64
2023/03/09 13:01:27;;;;;;;8.95;7.38;;;5.20;99.90;;;;;;4992243;28;20129;-64